Ceylon, Minnesota
Current Conditions -  °F | °C
As of 9:29 AM on Monday 22 Dec 2014 (Local Time) from KEST Reporting Station
Haze Haze  
Wind Chill: 27°   Ceiling: 200
Heat Index: 37°   Visibility: 1.2mi
Dew Point: 36°   Wind: 17mph
Humidity: 96%   Direction: 150°SSE
Pressure: 29.54"   Gusts: NA
Location:  43.53°N, 94.63°W
Report Text: KEST 221529Z AUTO 15015KT 1 1/4SM UP BR OVC002 03/02 A2954 RMK AO2 UPB17 P0001 T00280022
Loading
Personal Weather Stations






























Interactive Weather Map New forecast layout! Learn more

10-Day Weather Forecast

Advertisements
Track Severe Weather on mobile